Air Resources Laboratory banner image
Air Resources Laboratory web site National Oceanic and Atmospheric Administration (NOAA)

co metar


KAFF 160858Z AUTO 36009KT 10SM CLR M01/M13 A2982 RMK AO2 SLP078 T10081130 57014=
KAKO 160853Z AUTO 26006KT 10SM CLR 02/M11 A2976 RMK AO2 SLP066 T00221111 55007=
KALS 160852Z AUTO 23004KT 10SM CLR M17/M19 A3004 RMK AO2 SLP219 I1000 I3000
 T11671189 56017=
KAPA 160853Z 15007KT 10SM SCT120 BKN220 05/M09 A2978 RMK AO2 SLP057 T00501094
 56013=
KASE 160853Z AUTO 22003KT 10SM CLR M10/M13 A2998 RMK AO2 SLP143 T11001133 56021=
KBJC 160852Z AUTO 16003KT 10SM CLR 06/M10 A2978 RMK AO2=
KBKF 160858Z 18008KT 10SM FEW140 SCT170 BKN220 06/M11 A2978 RMK AO2A SLP042
 T00551111 56013=
KCAG 160853Z AUTO 26005KT 10SM CLR M15/M18 A2995 RMK AO2 SLP192 T11501178 58021=
KCEZ 160853Z AUTO 09006KT 10SM CLR M11/M18 A3004 RMK AO2 SLP177 T11111178 56019=
KCOS 160854Z 36008KT 10SM FEW180 FEW250 02/M13 A2982 RMK AO2 SLP073 T00221133
 56014=
KDEN 160853Z 20008KT 10SM FEW120 SCT140 BKN220 04/M11 A2977 RMK AO2 SLP041
 T00441106 56011 $=
KDRO 160853Z AUTO 16003KT 10SM CLR M09/M13 A3002 RMK AO2 SLP192 T10941128 58021=
KEEO 160853Z AUTO 00000KT 10SM CLR M06/M14 A2995 RMK AO2 SLP141 T10611144 56019=
KEGE 160856Z AUTO 11004KT 10SM CLR M13/M15 A3005 RMK AO2 SLP240 T11281150 56015
 FZRANO=
KFCS 160858Z AUTO 35008KT 10SM CLR 00/M10 A2980 RMK AO2 SLP096 T00001105 56014
 $=
KFNL 160856Z AUTO 09004KT 10SM CLR 02/M06 A2976 RMK AO2 SLP061 T00171056 56010
 FZRANO=
KFTG 160849Z AUTO 18008KT 10SM CLR 04/M07 A2978 RMK AO2 T00361075=
KGJT 160853Z AUTO 12005KT 10SM CLR M06/M14 A3000 RMK AO2 SLP170 T10611139 56018
 $=
KGUC 160856Z AUTO 00000KT 10SM CLR M13/M17 A3009 RMK AO2 SLP238 T11281167 56011
 FZRANO=
KGXY 160856Z AUTO 13003KT 10SM CLR M02/M07 A2978 RMK AO2 SLP095 T10221072 55006
 FZRANO=
KHDN 160856Z AUTO 10010KT 10SM CLR M07/M12 A2996 RMK AO2 SLP175 T10671122 58019
 FZRANO=
KITR 160853Z AUTO 23008KT 10SM CLR M01/M11 A2976 RMK AO2 SLP067 T10061111 56011=
KLAA 160853Z AUTO 30003KT 10SM CLR M07/M11 A2979 RMK AO2 SLP087 T10721111 55012=
KLHX 160853Z AUTO 27008KT 10SM CLR M01/M10 A2979 RMK AO2 SLP072 T10111100 56014
 TSNO $=
KLIC 160855Z AUTO 35005KT 10SM CLR M06/M10 A2978 RMK AO2 SLP072 T10561100 58017=
KLXV 160853Z AUTO 05004KT 10SM CLR M04/M16 A2998 RMK AO2 SLP079 T10391156 56014=
KMTJ 160853Z AUTO 14006KT 10SM CLR M07/M13 A3003 RMK AO2 SLP170 T10671133 56020=
KPUB 160853Z AUTO 28004KT 10SM CLR M06/M11 A2979 RMK AO2 SLP079 T10561111 56016=
KRIL 160853Z AUTO 00000KT 10SM CLR M09/M16 A3003 RMK AO2 SLP191 T10941156 56016=
KSBS 160853Z AUTO 00000KT 10SM CLR M09/M13 A2996 RMK AO1 T10881126=
KSPD 160856Z AUTO 24010KT M01/M09 A2980 RMK AO1 SLP071 T10111094 56016=
KTAD 160854Z AUTO 26012KT 10SM CLR 00/M12 A2984 RMK AO2 SLP073 T00001117 56019=
KTEX 160855Z AUTO 00000KT 10SM CLR M01/M17 A3004 RMK AO2 T10121170=